Time;durP1;ratioP1;P1;durP2;ratioP2;P2;SDS_P1;SDS_P2;PMS_P1;PMS_P2;Temp;Humidity;BMP_temperature;BMP_pressure;BME280_temperature;BME280_humidity;BME280_pressure;Samples;Min_cycle;Max_cycle;Signal;HPM_P1;HPM_P2
2022/08/01 00:00:07;;;;;;;0.30;0.30;;;;;;;25.17;37.11;94959.69;5036769;28;20620;-67
2022/08/01 00:02:39;;;;;;;0.30;0.30;;;;;;;25.40;37.15;94958.75;5043874;28;20197;-67
2022/08/01 00:05:08;;;;;;;0.70;0.70;;;;;;;25.49;36.84;94945.19;5030733;28;20209;-67
2022/08/01 00:07:35;;;;;;;0.30;0.30;;;;;;;25.76;36.61;94955.03;5050448;28;20242;-66
2022/08/01 00:10:08;;;;;;;0.47;0.47;;;;;;;25.59;37.17;94955.38;5052948;28;20228;-66
2022/08/01 00:12:34;;;;;;;0.57;0.57;;;;;;;25.37;38.18;94958.66;5053639;28;20214;-66
2022/08/01 00:15:03;;;;;;;0.30;0.30;;;;;;;24.99;39.14;94957.34;5042897;28;20193;-67
2022/08/01 00:17:30;;;;;;;0.33;0.33;;;;;;;25.17;38.80;94959.69;5037144;28;20234;-67
2022/08/01 00:19:56;;;;;;;0.60;0.60;;;;;;;24.90;39.81;94962.09;5053700;28;20200;-67
2022/08/01 00:22:23;;;;;;;0.93;0.93;;;;;;;25.15;39.20;94961.94;5053301;28;20667;-67
2022/08/01 00:24:50;;;;;;;0.80;0.80;;;;;;;24.98;39.79;94968.44;5045515;28;20209;-66
2022/08/01 00:27:17;;;;;;;0.67;0.67;;;;;;;24.77;40.27;94976.69;5047000;28;20633;-67
2022/08/01 00:29:44;;;;;;;0.50;0.50;;;;;;;24.38;40.50;94982.81;5052221;28;20209;-66
2022/08/01 00:32:32;;;;;;;1.67;0.97;;;;;;;24.47;40.83;94975.44;5052983;28;20687;-67
2022/08/01 00:34:58;;;;;;;0.40;0.40;;;;;;;24.83;40.17;94977.22;5046657;28;20197;-66
2022/08/01 00:37:25;;;;;;;0.53;0.53;;;;;;;24.67;40.25;94974.44;5047149;28;20196;-67
2022/08/01 00:39:52;;;;;;;1.43;1.33;;;;;;;24.59;40.31;94978.06;5053438;28;20208;-67
2022/08/01 00:42:19;;;;;;;0.40;0.40;;;;;;;24.49;40.53;94978.53;5041085;28;20189;-66
2022/08/01 00:44:46;;;;;;;0.50;0.50;;;;;;;24.62;40.34;94966.66;5050823;28;20286;-66
2022/08/01 00:47:13;;;;;;;0.90;0.90;;;;;;;24.35;40.92;94983.50;5053155;28;20197;-67
2022/08/01 00:49:40;;;;;;;1.23;1.13;;;;;;;24.07;41.13;94971.97;5053432;28;20238;-66
2022/08/01 00:52:08;;;;;;;0.40;0.40;;;;;;;23.96;41.46;94976.19;5053299;28;20224;-66
2022/08/01 00:54:35;;;;;;;0.30;0.30;;;;;;;23.71;41.57;94980.03;5053716;28;20268;-66
2022/08/01 00:57:03;;;;;;;0.37;0.37;;;;;;;24.33;40.38;94980.38;5052917;28;20204;-67
2022/08/01 00:59:30;;;;;;;0.43;0.43;;;;;;;24.24;40.50;94961.00;5050215;28;20196;-67
2022/08/01 01:01:57;;;;;;;0.50;0.50;;;;;;;24.35;40.00;94961.31;5053262;28;20671;-65
2022/08/01 01:04:24;;;;;;;0.27;0.23;;;;;;;24.26;40.33;94953.41;5037244;28;20223;-68
2022/08/01 01:07:09;;;;;;;0.40;0.40;;;;;;;24.54;40.33;94951.50;5040629;28;20204;-67
2022/08/01 01:09:50;;;;;;;0.57;0.57;;;;;;;24.35;40.21;94947.91;5052650;28;20254;-67
2022/08/01 01:12:23;;;;;;;2.20;1.77;;;;;;;23.78;41.52;94942.78;5052743;28;20236;-66
2022/08/01 01:15:15;;;;;;;0.83;0.83;;;;;;;23.99;41.16;94948.78;5051371;28;20223;-68
2022/08/01 01:18:00;;;;;;;0.50;0.50;;;;;;;24.04;41.11;94943.22;5052763;28;20202;-67
2022/08/01 01:20:31;;;;;;;0.53;0.50;;;;;;;24.28;40.74;94940.47;5051140;28;20295;-67
2022/08/01 01:23:20;;;;;;;0.60;0.60;;;;;;;24.15;41.02;94946.97;5052342;28;20287;-66
2022/08/01 01:25:54;;;;;;;0.30;0.30;;;;;;;24.10;41.25;94944.53;5052688;28;20235;-66
2022/08/01 01:28:29;;;;;;;0.47;0.47;;;;;;;24.36;40.41;94942.19;5038537;28;20207;-67
2022/08/01 01:30:58;;;;;;;0.37;0.37;;;;;;;24.26;40.53;94940.03;5042079;28;20224;-67
2022/08/01 01:33:33;;;;;;;0.50;0.50;;;;;;;24.47;40.02;94931.81;5048777;28;20193;-67
2022/08/01 01:36:13;;;;;;;0.40;0.40;;;;;;;24.19;40.26;94923.75;5041599;28;20284;-67
2022/08/01 01:38:44;;;;;;;0.93;0.93;;;;;;;24.40;39.71;94921.66;5051719;28;20219;-65
2022/08/01 01:41:12;;;;;;;0.43;0.43;;;;;;;24.40;39.89;94923.56;5053714;28;20192;-66
2022/08/01 01:43:40;;;;;;;0.40;0.40;;;;;;;24.48;40.08;94923.41;5052038;28;20193;-66
2022/08/01 01:46:09;;;;;;;0.73;0.73;;;;;;;24.39;39.77;94920.13;5052734;28;20660;-66
2022/08/01 01:48:37;;;;;;;0.30;0.30;;;;;;;24.32;39.89;94901.19;5052100;28;20200;-69
2022/08/01 01:51:04;;;;;;;0.40;0.40;;;;;;;24.31;39.53;94918.34;5043158;28;20217;-67
2022/08/01 01:53:34;;;;;;;0.20;0.20;;;;;;;24.45;39.62;94924.09;5045815;28;20236;-68
2022/08/01 01:56:02;;;;;;;0.23;0.23;;;;;;;24.52;38.98;94921.63;5041742;28;20204;-66
2022/08/01 01:58:32;;;;;;;0.57;0.57;;;;;;;24.48;39.62;94915.38;5051626;28;20624;-67
2022/08/01 02:01:01;;;;;;;0.30;0.30;;;;;;;24.45;38.97;94909.94;5052069;28;20254;-66
2022/08/01 02:03:31;;;;;;;0.27;0.27;;;;;;;24.11;38.33;94919.31;5052064;28;20304;-68
2022/08/01 02:05:59;;;;;;;1.17;0.60;;;;;;;24.26;39.10;94902.53;5051626;28;20199;-66
2022/08/01 02:08:28;;;;;;;0.40;0.40;;;;;;;24.43;39.25;94902.25;5052089;28;20224;-66
2022/08/01 02:11:33;;;;;;;0.10;0.10;;;;;;;24.41;38.94;94901.81;5052237;28;20224;-66
2022/08/01 02:13:58;;;;;;;0.80;0.57;;;;;;;24.30;39.62;94890.03;5051887;28;20200;-68
2022/08/01 02:16:29;;;;;;;0.40;0.40;;;;;;;24.47;39.58;94905.78;5051708;28;20200;-67
2022/08/01 02:18:56;;;;;;;0.40;0.40;;;;;;;;;;5049737;28;20246;-68
2022/08/01 02:22:12;;;;;;;0.60;0.50;;;;;;;24.57;39.29;94904.50;5031788;28;20189;-68
2022/08/01 02:24:57;;;;;;;0.30;0.30;;;;;;;24.60;39.49;94909.16;5033025;28;20258;-67
2022/08/01 02:27:34;;;;;;;0.53;0.53;;;;;;;24.56;39.75;94908.31;5051145;28;20196;-67
2022/08/01 02:30:07;;;;;;;0.27;0.27;;;;;;;24.54;39.34;94905.97;5050005;28;20205;-68
2022/08/01 02:32:42;;;;;;;0.30;0.30;;;;;;;24.59;38.91;94908.41;5050956;28;20236;-67
2022/08/01 02:35:24;;;;;;;0.10;0.10;;;;;;;24.21;39.77;94902.78;5042835;28;20627;-66
2022/08/01 02:37:53;;;;;;;0.73;0.53;;;;;;;24.49;39.20;94898.19;5047929;28;20667;-67
2022/08/01 02:40:21;;;;;;;0.50;0.50;;;;;;;24.34;39.45;94901.63;5050940;28;20189;-67
2022/08/01 02:42:50;;;;;;;0.20;0.20;;;;;;;24.50;38.66;94904.31;5051102;28;20192;-67
2022/08/01 02:45:20;;;;;;;3.50;0.70;;;;;;;24.35;38.66;94903.16;5051369;28;20232;-67
2022/08/01 02:47:49;;;;;;;0.70;0.57;;;;;;;24.34;39.40;94898.16;5049574;28;20204;-68
2022/08/01 02:50:17;;;;;;;0.73;0.73;;;;;;;24.27;39.44;94904.06;5031403;28;20258;-68
2022/08/01 02:52:49;;;;;;;1.33;1.23;;;;;;;24.20;40.28;94903.88;5045048;28;21020;-67
2022/08/01 02:55:19;;;;;;;0.37;0.37;;;;;;;24.27;39.45;94906.75;5051289;28;20200;-67
2022/08/01 02:57:48;;;;;;;0.60;0.60;;;;;;;24.06;39.33;94900.81;5050757;28;20208;-68
2022/08/01 03:00:24;;;;;;;0.20;0.20;;;;;;;23.95;39.59;94895.13;5036574;28;20212;-67
2022/08/01 03:02:54;;;;;;;0.50;0.50;;;;;;;22.64;41.32;94916.19;5050754;28;20239;-66
2022/08/01 03:05:23;;;;;;;0.50;0.50;;;;;;;23.53;40.15;94909.16;5050784;28;20538;-67
2022/08/01 03:07:53;;;;;;;0.30;0.30;;;;;;;23.45;41.02;94912.72;5050975;28;20199;-66
2022/08/01 03:10:20;;;;;;;0.40;0.40;;;;;;;23.60;40.76;94914.72;5044820;28;20196;-67
2022/08/01 03:12:49;;;;;;;0.60;0.60;;;;;;;23.51;40.25;94906.03;5050333;28;20724;-65
2022/08/01 03:15:17;;;;;;;0.13;0.13;;;;;;;23.62;39.72;94897.22;5043748;28;20239;-66
2022/08/01 03:17:47;;;;;;;0.43;0.43;;;;;;;23.77;39.73;94909.13;5044532;28;20200;-66
2022/08/01 03:20:17;;;;;;;0.73;0.73;;;;;;;23.81;39.80;94901.97;5030520;28;20193;-67
2022/08/01 03:22:45;;;;;;;0.60;0.60;;;;;;;23.79;39.89;94914.91;5043278;28;20226;-67
2022/08/01 03:25:14;;;;;;;0.40;0.40;;;;;;;23.59;39.93;94915.84;5050195;28;20196;-67
2022/08/01 03:27:44;;;;;;;1.60;1.07;;;;;;;23.47;40.78;94921.97;5050558;28;20242;-66
2022/08/01 03:30:11;;;;;;;0.53;0.53;;;;;;;23.69;40.04;94921.50;5050520;28;20265;-67
2022/08/01 03:32:38;;;;;;;0.50;0.50;;;;;;;23.70;40.13;94922.28;5050125;28;20660;-67
2022/08/01 03:35:06;;;;;;;0.13;0.13;;;;;;;23.57;40.53;94912.72;5050280;28;20204;-66
2022/08/01 03:37:33;;;;;;;0.27;0.27;;;;;;;23.41;40.50;94914.50;5048129;28;20197;-67
2022/08/01 03:40:05;;;;;;;0.73;0.73;;;;;;;23.26;40.09;94915.94;5050360;28;20219;-68
2022/08/01 03:42:39;;;;;;;0.20;0.20;;;;;;;23.51;40.45;94922.06;5050216;28;20617;-67
2022/08/01 03:45:15;;;;;;;0.90;0.60;;;;;;;23.45;40.07;94923.44;5053576;28;20253;-67
2022/08/01 03:47:46;;;;;;;0.50;0.50;;;;;;;23.44;41.34;94921.84;5040502;28;20230;-66
2022/08/01 03:50:16;;;;;;;2.03;1.13;;;;;;;23.79;40.46;94922.94;5054664;28;20204;-67
2022/08/01 03:52:46;;;;;;;0.73;0.70;;;;;;;23.58;41.31;94925.75;5052001;28;20212;-66
2022/08/01 03:55:16;;;;;;;0.97;0.87;;;;;;;23.67;41.10;94920.25;5044642;28;20315;-66
2022/08/01 03:57:45;;;;;;;0.40;0.40;;;;;;;23.76;40.70;94929.72;5054113;28;20258;-65
2022/08/01 04:00:12;;;;;;;0.50;0.50;;;;;;;23.87;41.11;94922.81;5053179;28;20208;-66
2022/08/01 04:02:41;;;;;;;1.13;0.87;;;;;;;23.82;41.33;94923.03;5049178;28;20753;-66
2022/08/01 04:05:08;;;;;;;0.60;0.60;;;;;;;23.91;41.17;94930.94;5045121;28;20586;-67
2022/08/01 04:07:36;;;;;;;1.27;1.20;;;;;;;23.72;40.92;94920.06;5053978;28;20199;-66
2022/08/01 04:10:04;;;;;;;0.57;0.57;;;;;;;23.71;41.69;94929.97;5044806;28;20233;-66
2022/08/01 04:12:32;;;;;;;2.57;0.60;;;;;;;23.88;41.55;94931.63;5033931;28;20224;-67
2022/08/01 04:14:59;;;;;;;0.57;0.57;;;;;;;23.99;41.37;94924.69;5041769;28;20222;-66
2022/08/01 04:17:26;;;;;;;2.10;1.67;;;;;;;23.99;41.13;94927.34;5052402;28;20212;-69
2022/08/01 04:19:53;;;;;;;0.37;0.37;;;;;;;24.02;41.19;94924.81;5053561;28;20188;-67
2022/08/01 04:22:20;;;;;;;0.53;0.53;;;;;;;24.14;41.03;94917.88;5051177;28;20254;-67
2022/08/01 04:24:52;;;;;;;0.30;0.30;;;;;;;24.20;40.60;94922.63;5050790;28;20582;-68
2022/08/01 04:27:32;;;;;;;1.10;1.03;;;;;;;23.98;40.62;94926.56;5052168;28;20192;-67
2022/08/01 04:30:25;;;;;;;1.17;0.90;;;;;;;23.98;40.73;94925.78;5052283;28;20514;-68
2022/08/01 04:32:55;;;;;;;0.50;0.50;;;;;;;24.16;39.70;94927.09;5043701;28;20311;-68
2022/08/01 04:35:24;;;;;;;0.40;0.40;;;;;;;24.02;40.36;94935.53;5047178;28;20204;-70
2022/08/01 04:38:16;;;;;;;0.67;0.63;;;;;;;24.05;40.75;94932.16;5041346;28;20738;-67
2022/08/01 04:40:47;;;;;;;14.50;6.80;;;;;;;24.00;41.55;94927.03;5049669;28;20200;-67
2022/08/01 04:43:14;;;;;;;6.13;5.23;;;;;;;24.24;40.59;94926.19;5052359;28;20266;-68
2022/08/01 04:45:43;;;;;;;5.60;4.27;;;;;;;24.03;40.32;94917.56;5050072;28;20681;-66
2022/08/01 04:48:11;;;;;;;2.23;1.30;;;;;;;24.30;39.93;94916.81;5043227;28;20668;-66
2022/08/01 04:50:38;;;;;;;0.30;0.30;;;;;;;24.01;40.25;94927.84;5047454;28;20197;-66
2022/08/01 04:53:05;;;;;;;0.40;0.40;;;;;;;23.97;40.22;94929.59;5053347;28;20278;-67
2022/08/01 04:55:31;;;;;;;0.40;0.40;;;;;;;24.11;39.60;94935.38;5052792;28;20204;-67
2022/08/01 04:57:58;;;;;;;0.73;0.73;;;;;;;24.17;39.56;94926.00;5041811;28;20193;-66
2022/08/01 05:00:26;;;;;;;0.23;0.23;;;;;;;23.84;39.67;94920.03;5049837;28;20254;-66
2022/08/01 05:02:52;;;;;;;0.40;0.40;;;;;;;24.08;39.64;94914.66;5052776;28;20678;-66
2022/08/01 05:05:20;;;;;;;0.47;0.47;;;;;;;24.08;40.86;94914.66;5051084;28;20656;-68
2022/08/01 05:07:47;;;;;;;1.00;1.00;;;;;;;24.20;39.58;94911.91;5040324;28;20197;-67
2022/08/01 05:10:14;;;;;;;0.83;0.67;;;;;;;24.10;39.57;94905.13;5053001;28;20197;-68
2022/08/01 05:12:41;;;;;;;0.40;0.37;;;;;;;24.11;39.79;94905.94;5046346;28;20260;-66
2022/08/01 05:15:08;;;;;;;1.47;1.20;;;;;;;24.66;38.89;94908.59;5032888;28;20197;-63
2022/08/01 05:17:42;;;;;;;2.60;2.40;;;;;;;24.62;39.00;94907.72;5051475;28;20719;-64
2022/08/01 05:20:11;;;;;;;1.77;1.30;;;;;;;24.09;38.97;94900.13;5052368;28;20207;-70
2022/08/01 05:22:38;;;;;;;3.30;1.57;;;;;;;24.21;38.83;94902.78;5048428;28;20193;-66
2022/08/01 05:25:05;;;;;;;0.20;0.20;;;;;;;24.24;38.38;94899.41;5043916;28;20655;-67
2022/08/01 05:27:37;;;;;;;1.60;1.13;;;;;;;24.71;38.40;94900.31;5052759;28;20334;-67
2022/08/01 05:30:08;;;;;;;0.67;0.67;;;;;;;24.68;37.35;94897.53;5052568;28;20636;-67
2022/08/01 05:32:35;;;;;;;1.20;1.10;;;;;;;24.99;37.55;94902.94;5052351;28;20289;-66
2022/08/01 05:35:04;;;;;;;0.70;0.70;;;;;;;24.81;36.79;94899.84;5051987;28;20668;-66
2022/08/01 05:37:31;;;;;;;0.30;0.30;;;;;;;24.95;37.25;94899.41;5052679;28;20197;-66
2022/08/01 05:39:58;;;;;;;0.90;0.80;;;;;;;25.01;36.84;94904.19;5051417;28;20204;-66
2022/08/01 05:42:24;;;;;;;0.77;0.77;;;;;;;24.87;35.93;94901.13;5049041;28;20222;-66
2022/08/01 05:44:51;;;;;;;6.07;1.13;;;;;;;24.56;36.16;94908.31;5049001;28;20286;-67
2022/08/01 05:47:18;;;;;;;0.30;0.30;;;;;;;24.86;36.04;94896.91;5049050;28;20690;-67
2022/08/01 05:49:45;;;;;;;0.40;0.40;;;;;;;25.22;35.76;94897.78;5049327;28;20277;-67
2022/08/01 05:52:12;;;;;;;1.07;0.83;;;;;;;25.15;36.03;94897.56;5050274;28;20219;-66
2022/08/01 05:54:39;;;;;;;0.60;0.60;;;;;;;25.07;35.70;94900.09;5051777;28;20563;-67
2022/08/01 05:57:06;;;;;;;0.50;0.50;;;;;;;25.46;35.78;94898.38;5048202;28;20190;-67
2022/08/01 05:59:33;;;;;;;0.60;0.50;;;;;;;25.29;35.73;94911.34;5041515;28;20266;-67
2022/08/01 06:02:00;;;;;;;0.50;0.50;;;;;;;25.42;35.69;94912.84;5051820;28;20295;-66
2022/08/01 06:04:27;;;;;;;0.70;0.70;;;;;;;25.86;34.35;94908.81;5052098;28;20238;-67
2022/08/01 06:06:54;;;;;;;0.20;0.20;;;;;;;25.65;34.61;94901.09;5051542;28;20204;-67
2022/08/01 06:09:21;;;;;;;0.93;0.67;;;;;;;25.93;33.82;94907.06;5052276;28;20188;-66
2022/08/01 06:11:48;;;;;;;0.70;0.70;;;;;;;25.85;34.92;94904.59;5050444;28;20217;-67
2022/08/01 06:14:14;;;;;;;0.83;0.73;;;;;;;26.17;34.22;94887.25;5051177;28;20262;-66
2022/08/01 06:16:41;;;;;;;0.20;0.20;;;;;;;25.43;33.98;94901.75;5051415;28;20243;-68
2022/08/01 06:19:08;;;;;;;0.50;0.50;;;;;;;25.82;34.59;94911.44;5051572;28;20628;-66
2022/08/01 06:21:35;;;;;;;0.67;0.63;;;;;;;25.80;33.41;94910.25;5051324;28;20737;-65
2022/08/01 06:24:02;;;;;;;0.33;0.33;;;;;;;25.86;33.94;94911.50;5051562;28;20196;-66
2022/08/01 06:26:29;;;;;;;0.30;0.30;;;;;;;26.00;33.64;94907.22;5051721;28;20637;-65
2022/08/01 06:28:56;;;;;;;0.50;0.50;;;;;;;26.03;34.28;94900.38;5037829;28;20243;-66
2022/08/01 06:31:22;;;;;;;0.37;0.37;;;;;;;26.28;33.83;94907.06;5044462;28;20828;-67
2022/08/01 06:33:49;;;;;;;0.20;0.20;;;;;;;26.19;34.61;94911.88;5043218;28;20208;-65
2022/08/01 06:36:16;;;;;;;0.40;0.40;;;;;;;26.19;33.66;94909.19;5051078;28;20196;-66
2022/08/01 06:38:42;;;;;;;0.90;0.87;;;;;;;25.70;33.70;94908.88;5041259;28;20205;-66
2022/08/01 06:41:09;;;;;;;0.40;0.40;;;;;;;25.34;32.52;94900.34;5047019;28;20334;-64
2022/08/01 06:43:36;;;;;;;0.17;0.17;;;;;;;25.67;32.29;94900.75;5050825;28;20193;-66
2022/08/01 06:46:04;;;;;;;0.47;0.47;;;;;;;25.68;32.19;94895.03;5049980;28;20235;-66
2022/08/01 06:48:30;;;;;;;0.20;0.20;;;;;;;25.33;32.08;94898.81;5038181;28;20192;-64
2022/08/01 06:51:20;;;;;;;0.40;0.40;;;;;;;25.61;31.99;94894.09;5050932;28;20200;-66
2022/08/01 06:53:44;;;;;;;0.30;0.30;;;;;;;25.69;32.07;94879.72;5044335;28;20318;-67
2022/08/01 06:56:11;;;;;;;0.30;0.30;;;;;;;26.11;32.83;94874.47;5050665;28;20269;-67
2022/08/01 06:58:38;;;;;;;0.40;0.40;;;;;;;25.84;32.04;94871.59;5048558;28;20629;-64
2022/08/01 07:01:06;;;;;;;0.40;0.40;;;;;;;26.17;32.18;94879.22;5039109;28;20200;-65
2022/08/01 07:03:34;;;;;;;0.60;0.60;;;;;;;25.94;31.62;94879.13;5050623;28;20204;-64
2022/08/01 07:06:23;;;;;;;0.20;0.20;;;;;;;25.58;32.40;94878.69;5050872;28;20277;-65
2022/08/01 07:08:50;;;;;;;0.20;0.20;;;;;;;25.96;32.10;94862.66;5050259;28;20230;-66
2022/08/01 07:11:18;;;;;;;0.33;0.33;;;;;;;25.79;32.09;94879.16;5040888;28;20617;-65
2022/08/01 07:13:47;;;;;;;0.83;0.53;;;;;;;25.98;32.20;94865.75;5031092;28;20256;-66
2022/08/01 07:16:16;;;;;;;1.03;0.87;;;;;;;25.74;32.52;94839.97;5050349;28;20678;-65
2022/08/01 07:18:43;;;;;;;0.63;0.57;;;;;;;26.35;32.20;94885.69;5050077;28;20196;-64
2022/08/01 07:21:10;;;;;;;0.10;0.10;;;;;;;26.40;31.89;94881.97;5051116;28;20196;-66
2022/08/01 07:23:57;;;;;;;0.50;0.50;;;;;;;26.74;31.75;94865.75;5050871;28;20196;-63
2022/08/01 07:26:27;;;;;;;0.43;0.43;;;;;;;26.41;32.08;94873.53;5050689;28;20679;-63
2022/08/01 07:28:54;;;;;;;0.30;0.30;;;;;;;26.81;32.31;94876.59;5050343;28;20219;-65
2022/08/01 07:31:21;;;;;;;8.30;0.70;;;;;;;26.58;31.96;94873.09;5050379;28;20242;-67
2022/08/01 07:33:47;;;;;;;2.17;1.03;;;;;;;26.77;31.50;94881.13;5050173;28;20298;-67
2022/08/01 07:36:16;;;;;;;0.20;0.20;;;;;;;27.38;31.22;94878.34;5036286;28;20713;-65
2022/08/01 07:38:43;;;;;;;0.30;0.30;;;;;;;26.72;30.86;94873.38;5050318;28;20197;-68
2022/08/01 07:41:11;;;;;;;0.20;0.20;;;;;;;26.18;31.39;94871.94;5036299;28;20201;-65
2022/08/01 07:43:37;;;;;;;0.57;0.57;;;;;;;26.39;31.57;94870.44;5050193;28;20201;-66
2022/08/01 07:46:05;;;;;;;0.30;0.30;;;;;;;27.18;31.27;94889.50;5050010;28;20254;-66
2022/08/01 07:48:32;;;;;;;0.90;0.90;;;;;;;26.69;31.46;94879.47;5050165;28;20204;-65
2022/08/01 07:50:58;;;;;;;1.53;1.43;;;;;;;27.03;31.27;94873.16;5050275;28;20231;-65
2022/08/01 07:53:25;;;;;;;0.30;0.30;;;;;;;26.93;30.76;94884.50;5049692;28;20722;-66
2022/08/01 07:55:52;;;;;;;0.20;0.20;;;;;;;27.26;30.39;94880.44;5050048;28;20664;-67
2022/08/01 07:58:19;;;;;;;0.20;0.20;;;;;;;27.16;30.84;94846.03;5050413;28;20616;-66
2022/08/01 08:00:46;;;;;;;0.57;0.57;;;;;;;27.25;30.92;94873.47;5049763;28;20192;-66
2022/08/01 08:03:13;;;;;;;0.73;0.73;;;;;;;27.07;30.70;94885.88;5050294;28;20201;-65
2022/08/01 08:05:40;;;;;;;0.50;0.50;;;;;;;26.48;31.38;94870.97;5035989;28;20269;-64
2022/08/01 08:08:25;;;;;;;0.63;0.63;;;;;;;27.13;31.64;94887.91;5050053;28;20203;-65
2022/08/01 08:10:51;;;;;;;0.80;0.57;;;;;;;27.39;31.07;94885.25;5049839;28;20656;-65
2022/08/01 08:13:18;;;;;;;0.20;0.20;;;;;;;27.38;30.84;94880.25;5048535;28;20231;-65
2022/08/01 08:15:46;;;;;;;0.20;0.20;;;;;;;27.48;30.74;94871.56;5035591;28;20200;-66
2022/08/01 08:18:14;;;;;;;0.80;0.80;;;;;;;27.20;30.71;94882.63;5039175;28;20634;-63
2022/08/01 08:20:43;;;;;;;0.63;0.63;;;;;;;26.29;31.64;94875.59;5030194;28;20294;-66
2022/08/01 08:26:12;;;;;;;0.30;0.30;;;;;;;27.73;31.47;94886.16;5035406;28;20290;-66
2022/08/01 08:28:39;;;;;;;0.50;0.50;;;;;;;27.25;31.51;94873.47;5049889;28;20200;-66
2022/08/01 08:31:07;;;;;;;1.37;0.70;;;;;;;27.60;30.88;94866.75;5052719;28;20192;-65
2022/08/01 08:33:51;;;;;;;0.23;0.23;;;;;;;27.29;30.62;94882.38;5053241;28;20234;-64
2022/08/01 08:36:18;;;;;;;0.30;0.30;;;;;;;27.69;32.07;94871.84;5039026;28;20659;-64
2022/08/01 08:38:45;;;;;;;1.30;1.03;;;;;;;27.46;30.01;94877.28;5053914;28;20246;-63
2022/08/01 08:41:12;;;;;;;0.40;0.40;;;;;;;26.77;30.54;94883.03;5053153;28;20242;-63
2022/08/01 08:43:46;;;;;;;0.30;0.30;;;;;;;27.05;30.67;94880.84;5053060;28;20620;-62
2022/08/01 08:46:14;;;;;;;0.83;0.80;;;;;;;27.18;30.64;94878.75;5053229;28;20201;-65
2022/08/01 08:48:42;;;;;;;0.30;0.30;;;;;;;27.42;29.73;94873.00;5045136;28;20197;-66
2022/08/01 08:51:11;;;;;;;0.33;0.33;;;;;;;28.01;30.71;94883.84;5047959;28;20232;-67
2022/08/01 08:53:43;;;;;;;0.57;0.57;;;;;;;28.07;29.23;94871.63;5053229;28;20220;-66
2022/08/01 08:56:13;;;;;;;0.27;0.27;;;;;;;27.81;30.23;94868.94;5043104;28;20242;-70
2022/08/01 08:58:42;;;;;;;0.20;0.20;;;;;;;27.55;29.80;94867.06;5053353;28;20295;-67
2022/08/01 09:01:10;;;;;;;0.40;0.40;;;;;;;28.28;29.86;94871.91;5053091;28;20240;-66
2022/08/01 09:03:36;;;;;;;0.30;0.30;;;;;;;28.44;28.62;94866.28;5053476;28;20197;-65
2022/08/01 09:06:04;;;;;;;0.20;0.20;;;;;;;28.16;28.06;94869.41;5052803;28;20209;-67
2022/08/01 09:08:30;;;;;;;0.50;0.50;;;;;;;28.39;27.88;94861.22;5053086;28;20204;-66
2022/08/01 09:10:57;;;;;;;0.37;0.37;;;;;;;26.61;30.14;94864.31;5031892;28;20209;-67
2022/08/01 09:13:24;;;;;;;0.53;0.50;;;;;;;27.52;30.00;94857.00;5044271;28;20234;-64
2022/08/01 09:15:53;;;;;;;0.30;0.30;;;;;;;27.99;28.23;94856.53;5052502;28;20185;-66
2022/08/01 09:18:39;;;;;;;0.30;0.30;;;;;;;28.15;28.12;94857.09;5053930;28;20211;-66
2022/08/01 09:21:05;;;;;;;0.50;0.50;;;;;;;27.41;28.67;94860.72;5053804;28;20295;-68
2022/08/01 09:23:39;;;;;;;0.30;0.30;;;;;;;27.83;28.55;94845.13;5052450;28;20762;-64
2022/08/01 09:26:34;;;;;;;0.40;0.40;;;;;;;28.50;28.06;94851.34;5039344;28;20188;-67
2022/08/01 09:29:04;;;;;;;0.60;0.60;;;;;;;28.46;27.39;94851.31;5038129;28;20197;-65
2022/08/01 09:31:41;;;;;;;0.10;0.10;;;;;;;28.79;27.94;94848.59;5052231;28;20275;-67
2022/08/01 09:34:14;;;;;;;0.33;0.33;;;;;;;28.73;27.60;94854.66;5051139;28;20224;-66
2022/08/01 09:36:51;;;;;;;0.67;0.67;;;;;;;27.99;27.96;94851.16;5040076;28;20192;-66
2022/08/01 09:39:25;;;;;;;0.30;0.30;;;;;;;28.14;27.68;94858.22;5038065;28;20652;-66
2022/08/01 09:41:53;;;;;;;0.10;0.10;;;;;;;28.10;27.23;94860.13;5051489;28;20196;-64
2022/08/01 09:44:42;;;;;;;0.87;0.40;;;;;;;28.75;27.01;94863.94;5037295;28;20225;-66
2022/08/01 09:47:21;;;;;;;0.60;0.60;;;;;;;29.02;27.59;94850.28;5044348;28;20203;-68
2022/08/01 09:49:56;;;;;;;0.27;0.27;;;;;;;29.23;26.70;94850.50;5052156;28;20279;-67
2022/08/01 09:52:27;;;;;;;0.30;0.30;;;;;;;28.35;27.13;94836.94;5052549;28;20254;-64
2022/08/01 09:55:00;;;;;;;0.27;0.27;;;;;;;28.69;28.33;94854.63;5052084;28;20196;-66
2022/08/01 09:57:27;;;;;;;0.20;0.20;;;;;;;29.40;27.51;94849.84;5032099;28;20193;-67
2022/08/01 09:59:57;;;;;;;0.60;0.60;;;;;;;29.66;28.13;94841.53;5045022;28;20208;-66
2022/08/01 10:02:29;;;;;;;0.40;0.40;;;;;;;29.64;26.80;94841.13;5051618;28;20231;-67
2022/08/01 10:04:56;;;;;;;0.77;0.77;;;;;;;29.75;26.96;94828.50;5052023;28;20196;-65
2022/08/01 10:07:58;;;;;;;1.13;1.13;;;;;;;30.13;26.80;94838.69;5051965;28;20216;-69
2022/08/01 10:10:26;;;;;;;0.20;0.20;;;;;;;30.33;26.07;94831.84;5037648;28;20236;-66
2022/08/01 10:12:58;;;;;;;0.30;0.30;;;;;;;30.26;25.78;94828.34;5051751;28;20212;-66
2022/08/01 10:15:27;;;;;;;0.30;0.30;;;;;;;30.23;27.26;94816.34;5051172;28;20234;-67
2022/08/01 10:18:08;;;;;;;0.67;0.67;;;;;;;29.35;27.14;94826.69;5051712;28;20204;-67
2022/08/01 10:20:52;;;;;;;0.50;0.50;;;;;;;29.52;26.91;94825.25;5048433;28;20197;-68
2022/08/01 10:23:26;;;;;;;0.43;0.43;;;;;;;30.05;27.05;94826.34;5041847;28;20212;-67
2022/08/01 10:26:09;;;;;;;0.30;0.30;;;;;;;30.28;26.18;94823.34;5051763;28;20197;-67
2022/08/01 10:28:38;;;;;;;0.50;0.50;;;;;;;30.24;26.27;94826.00;5051287;28;20258;-67
2022/08/01 10:31:07;;;;;;;0.33;0.33;;;;;;;29.33;26.71;94812.00;5037228;28;20193;-65
2022/08/01 10:33:41;;;;;;;0.40;0.40;;;;;;;30.19;27.10;94823.69;5040272;28;20215;-68
2022/08/01 10:36:22;;;;;;;0.20;0.20;;;;;;;30.22;26.00;94820.19;5035538;28;20564;-68
2022/08/01 10:38:54;;;;;;;0.40;0.40;;;;;;;30.53;27.14;94803.31;5051345;28;20196;-66
2022/08/01 10:41:21;;;;;;;0.73;0.73;;;;;;;29.17;26.91;94808.81;5050842;28;20203;-68
2022/08/01 10:43:48;;;;;;;0.40;0.40;;;;;;;29.31;27.10;94814.31;5040710;28;20193;-67
2022/08/01 10:46:17;;;;;;;0.43;0.43;;;;;;;29.47;27.26;94812.13;5046963;28;20349;-67
2022/08/01 10:49:00;;;;;;;0.40;0.40;;;;;;;29.22;27.43;94813.88;5050936;28;20291;-66
2022/08/01 10:51:28;;;;;;;3.70;1.70;;;;;;;29.05;27.81;94815.25;5050727;28;20735;-67
2022/08/01 10:54:15;;;;;;;0.40;0.40;;;;;;;29.39;27.60;94810.50;5050681;28;20515;-67
2022/08/01 10:56:47;;;;;;;0.40;0.40;;;;;;;30.01;28.47;94803.13;5050939;28;20204;-67
2022/08/01 10:59:27;;;;;;;0.30;0.30;;;;;;;30.73;26.78;94801.78;5042560;28;20295;-68
2022/08/01 11:02:27;;;;;;;1.23;0.53;;;;;;;30.28;25.95;94802.50;5048336;28;20991;-66
2022/08/01 11:05:07;;;;;;;0.50;0.40;;;;;;;30.54;25.89;94799.47;5050807;28;20283;-68
2022/08/01 11:07:40;;;;;;;0.97;0.90;;;;;;;30.29;26.53;94808.69;5035493;28;20238;-67
2022/08/01 11:10:21;;;;;;;0.37;0.37;;;;;;;30.48;25.81;94801.00;5051228;28;20196;-66
2022/08/01 11:12:50;;;;;;;0.50;0.50;;;;;;;30.95;25.19;94804.56;5030956;28;20213;-68
2022/08/01 11:15:26;;;;;;;0.30;0.30;;;;;;;30.71;26.74;94800.66;5043688;28;20694;-68
2022/08/01 11:17:57;;;;;;;0.20;0.20;;;;;;;30.50;26.04;94793.28;5038204;28;20222;-68
2022/08/01 11:20:31;;;;;;;0.50;0.50;;;;;;;30.53;26.13;94792.50;5050654;28;20193;-67
2022/08/01 11:23:01;;;;;;;0.67;0.63;;;;;;;30.83;25.76;94779.44;5030934;28;20204;-68
2022/08/01 11:25:38;;;;;;;0.30;0.30;;;;;;;30.88;25.27;94791.03;5043590;28;20196;-66
2022/08/01 11:28:27;;;;;;;0.40;0.40;;;;;;;31.47;26.24;94790.22;5040255;28;20180;-66
2022/08/01 11:31:06;;;;;;;0.37;0.37;;;;;;;30.92;25.56;94797.19;5050421;28;20222;-70
2022/08/01 11:33:42;;;;;;;0.47;0.47;;;;;;;31.04;25.60;94777.88;5039890;28;20225;-69
2022/08/01 11:36:19;;;;;;;0.40;0.40;;;;;;;30.38;26.23;94785.50;5048276;28;20189;-67
2022/08/01 11:39:06;;;;;;;0.93;0.93;;;;;;;30.55;25.57;94801.00;5036754;28;20220;-65
2022/08/01 11:41:41;;;;;;;1.10;0.80;;;;;;;30.21;26.02;94791.63;5036578;28;20683;-69
2022/08/01 11:44:15;;;;;;;0.40;0.40;;;;;;;30.56;25.53;94785.56;5049467;28;20625;-65
2022/08/01 11:46:55;;;;;;;0.83;0.83;;;;;;;30.73;25.25;94779.38;5049997;28;20895;-65
2022/08/01 11:49:36;;;;;;;0.40;0.40;;;;;;;30.64;26.72;94787.88;5036310;28;20201;-66
2022/08/01 11:52:12;;;;;;;0.30;0.30;;;;;;;30.99;25.74;94787.16;5029926;28;20232;-67
2022/08/01 11:54:49;;;;;;;0.23;0.23;;;;;;;30.92;25.38;94784.44;5050012;28;20221;-68